Time;durP1;ratioP1;P1;durP2;ratioP2;P2;SDS_P1;SDS_P2;PMS_P1;PMS_P2;Temp;Humidity;BMP_temperature;BMP_pressure;BME280_temperature;BME280_humidity;BME280_pressure;Samples;Min_cycle;Max_cycle;Signal;HPM_P1;HPM_P2
2022/01/07 00:00:16;;;;;;;24.15;8.90;;;;;;;;;;5135192;27;20043;-82
2022/01/07 00:02:46;;;;;;;20.98;8.20;;;;;;;;;;5135116;27;20061;-82
2022/01/07 00:05:25;;;;;;;21.02;7.88;;;;;;;;;;5134918;27;20047;-82
2022/01/07 00:07:52;;;;;;;21.48;7.70;;;;;;;;;;5134880;27;20126;-81
2022/01/07 00:10:20;;;;;;;20.95;7.40;;;;;;;;;;5116556;27;20050;-82
2022/01/07 00:12:47;;;;;;;22.00;7.63;;;;;;;;;;5134809;27;20059;-82
2022/01/07 00:15:13;;;;;;;17.35;7.13;;;;;;;;;;5134614;27;20050;-81
2022/01/07 00:17:39;;;;;;;19.50;8.23;;;;;;;;;;5116471;27;20054;-81
2022/01/07 00:20:09;;;;;;;18.10;7.13;;;;;;;;;;5116305;27;20042;-81
2022/01/07 00:22:35;;;;;;;19.00;7.45;;;;;;;;;;5116079;27;20081;-82
2022/01/07 00:25:01;;;;;;;18.35;6.93;;;;;;;;;;5116445;27;20035;-82
2022/01/07 00:27:27;;;;;;;19.05;7.20;;;;;;;;;;5134639;27;20051;-81
2022/01/07 00:29:53;;;;;;;18.98;6.70;;;;;;;;;;5132929;27;20043;-82
2022/01/07 00:32:20;;;;;;;18.00;6.85;;;;;;;;;;5134438;27;20047;-82
2022/01/07 00:34:46;;;;;;;20.13;6.90;;;;;;;;;;5134664;27;20039;-82
2022/01/07 00:37:12;;;;;;;19.55;6.75;;;;;;;;;;5134269;27;20416;-82
2022/01/07 00:39:38;;;;;;;19.75;7.03;;;;;;;;;;5099271;27;20118;-81
2022/01/07 00:42:05;;;;;;;21.10;5.95;;;;;;;;;;5133119;27;20045;-80
2022/01/07 00:44:31;;;;;;;22.35;6.45;;;;;;;;;;5133060;27;20039;-80
2022/01/07 00:46:57;;;;;;;17.27;6.05;;;;;;;;;;5134190;27;20055;-81
2022/01/07 00:49:23;;;;;;;18.30;6.30;;;;;;;;;;5133079;27;20035;-82
2022/01/07 00:51:50;;;;;;;18.73;6.43;;;;;;;;;;5116298;27;20043;-82
2022/01/07 00:54:16;;;;;;;19.63;5.75;;;;;;;;;;5133029;27;20111;-82
2022/01/07 00:56:43;;;;;;;16.33;5.57;;;;;;;;;;5133030;27;20047;-81
2022/01/07 00:59:09;;;;;;;18.65;5.90;;;;;;;;;;5134061;27;20418;-82
2022/01/07 01:01:36;;;;;;;17.17;5.95;;;;;;;;;;5115535;27;20046;-82
2022/01/07 01:04:03;;;;;;;17.08;5.88;;;;;;;;;;5134168;27;20050;-81
2022/01/07 01:06:29;;;;;;;20.42;7.20;;;;;;;;;;5115779;27;20380;-81
2022/01/07 01:08:55;;;;;;;17.23;6.20;;;;;;;;;;5133677;27;20057;-82
2022/01/07 01:11:21;;;;;;;17.70;6.47;;;;;;;;;;5133828;27;20089;-82
2022/01/07 01:13:47;;;;;;;15.10;6.72;;;;;;;;;;5132777;27;20122;-82
2022/01/07 01:16:13;;;;;;;21.60;7.18;;;;;;;;;;5132343;27;20045;-83
2022/01/07 01:18:39;;;;;;;16.88;6.85;;;;;;;;;;5132674;27;20049;-81
2022/01/07 01:21:05;;;;;;;21.48;7.07;;;;;;;;;;5133478;27;20395;-81
2022/01/07 01:23:32;;;;;;;16.83;6.50;;;;;;;;;;5132765;27;20051;-81
2022/01/07 01:25:58;;;;;;;23.35;7.20;;;;;;;;;;5130636;27;20078;-81
2022/01/07 01:28:25;;;;;;;17.50;6.88;;;;;;;;;;5115124;27;20046;-81
2022/01/07 01:30:51;;;;;;;19.08;7.50;;;;;;;;;;5133857;27;20043;-80
2022/01/07 01:33:18;;;;;;;17.40;6.68;;;;;;;;;;5133732;27;20043;-81
2022/01/07 01:35:44;;;;;;;20.83;7.38;;;;;;;;;;5133750;28;20039;-82
2022/01/07 01:38:10;;;;;;;15.60;6.72;;;;;;;;;;5133522;28;20480;-81
2022/01/07 01:40:37;;;;;;;19.05;7.00;;;;;;;;;;5133357;28;20456;-81
2022/01/07 01:43:03;;;;;;;18.17;7.20;;;;;;;;;;5117664;27;20049;-80
2022/01/07 01:45:29;;;;;;;18.23;7.45;;;;;;;;;;5137765;27;20488;-81
2022/01/07 01:47:56;;;;;;;17.88;7.25;;;;;;;;;;5137663;27;20036;-81
2022/01/07 01:50:23;;;;;;;21.63;7.25;;;;;;;;;;5137829;27;20384;-81
2022/01/07 01:52:52;;;;;;;19.30;7.20;;;;;;;;;;5137508;27;20054;-83
2022/01/07 01:55:19;;;;;;;18.88;7.15;;;;;;;;;;5119175;27;20054;-81
2022/01/07 01:57:45;;;;;;;21.13;7.82;;;;;;;;;;5119327;27;20051;-82
2022/01/07 02:00:12;;;;;;;20.15;7.20;;;;;;;;;;5137354;27;20047;-82
2022/01/07 02:02:38;;;;;;;21.73;7.35;;;;;;;;;;5119361;27;20118;-82
2022/01/07 02:05:05;;;;;;;16.17;7.85;;;;;;;;;;5137269;27;20039;-81
2022/01/07 02:07:35;;;;;;;17.85;7.53;;;;;;;;;;5118482;27;20490;-81
2022/01/07 02:10:05;;;;;;;21.80;8.20;;;;;;;;;;5137242;27;20057;-81
2022/01/07 02:12:32;;;;;;;19.27;7.25;;;;;;;;;;5137087;27;20050;-81
2022/01/07 02:14:58;;;;;;;16.08;7.90;;;;;;;;;;5119256;27;20039;-80
2022/01/07 02:17:25;;;;;;;21.35;8.73;;;;;;;;;;5137108;27;20546;-82
2022/01/07 02:19:51;;;;;;;18.70;8.35;;;;;;;;;;5119096;27;20055;-81
2022/01/07 02:22:18;;;;;;;19.17;8.20;;;;;;;;;;5101818;27;20039;-81
2022/01/07 02:24:44;;;;;;;20.63;7.93;;;;;;;;;;5118564;27;20043;-83
2022/01/07 02:27:12;;;;;;;20.50;8.15;;;;;;;;;;5113822;27;20043;-82
2022/01/07 02:29:38;;;;;;;18.90;8.40;;;;;;;;;;5137092;27;20043;-82
2022/01/07 02:32:04;;;;;;;20.50;8.18;;;;;;;;;;5118631;27;20072;-83
2022/01/07 02:34:31;;;;;;;22.60;9.10;;;;;;;;;;5135803;27;20079;-81
2022/01/07 02:36:57;;;;;;;20.02;8.82;;;;;;;;;;5137243;27;20043;-81
2022/01/07 02:39:24;;;;;;;17.10;8.48;;;;;;;;;;5136703;27;20086;-82
2022/01/07 02:41:50;;;;;;;19.15;8.70;;;;;;;;;;5135535;27;20051;-81
2022/01/07 02:44:16;;;;;;;22.02;8.85;;;;;;;;;;5136739;27;20121;-81
2022/01/07 02:46:42;;;;;;;20.10;9.25;;;;;;;;;;5136770;27;20071;-81
2022/01/07 02:49:13;;;;;;;22.27;10.23;;;;;;;;;;5135498;27;20357;-81
2022/01/07 02:51:39;;;;;;;18.53;9.63;;;;;;;;;;5135671;27;20515;-82
2022/01/07 02:54:07;;;;;;;19.00;9.55;;;;;;;;;;5135057;27;20126;-82
2022/01/07 02:56:33;;;;;;;20.38;9.55;;;;;;;;;;5135352;27;20047;-81
2022/01/07 02:59:00;;;;;;;18.55;9.88;;;;;;;;;;5136539;27;20078;-82
2022/01/07 03:01:26;;;;;;;23.05;10.48;;;;;;;;;;5135281;27;20043;-81
2022/01/07 03:03:52;;;;;;;23.15;10.32;;;;;;;;;;5135308;27;20085;-81
2022/01/07 03:06:20;;;;;;;17.80;10.15;;;;;;;;;;5135128;27;20038;-82
2022/01/07 03:08:47;;;;;;;18.25;10.73;;;;;;;;;;5134573;27;20055;-81
2022/01/07 03:11:13;;;;;;;21.58;10.27;;;;;;;;;;5135073;27;20050;-82
2022/01/07 03:13:39;;;;;;;20.20;10.77;;;;;;;;;;5134948;27;20603;-81
2022/01/07 03:16:05;;;;;;;19.25;10.88;;;;;;;;;;5117762;27;20121;-82
2022/01/07 03:18:32;;;;;;;16.55;10.15;;;;;;;;;;5134783;27;20403;-81
2022/01/07 03:20:59;;;;;;;19.17;11.07;;;;;;;;;;5134631;27;20057;-81
2022/01/07 03:23:26;;;;;;;19.75;11.65;;;;;;;;;;5135667;27;20476;-81
2022/01/07 03:25:52;;;;;;;19.70;11.25;;;;;;;;;;5136023;27;20449;-81
2022/01/07 03:28:18;;;;;;;21.27;11.38;;;;;;;;;;5100635;27;20086;-82
2022/01/07 03:30:44;;;;;;;20.20;11.88;;;;;;;;;;5135909;27;20459;-81
2022/01/07 03:33:11;;;;;;;19.27;10.60;;;;;;;;;;5117407;27;20039;-82
2022/01/07 03:35:37;;;;;;;17.27;10.82;;;;;;;;;;5100710;27;20074;-82
2022/01/07 03:38:04;;;;;;;19.55;11.50;;;;;;;;;;5135578;27;20039;-81
2022/01/07 03:40:30;;;;;;;20.60;11.20;;;;;;;;;;5117537;27;20043;-82
2022/01/07 03:42:57;;;;;;;22.73;11.90;;;;;;;;;;5100330;27;20082;-82
2022/01/07 03:45:23;;;;;;;21.48;10.90;;;;;;;;;;5117563;27;20468;-82
2022/01/07 03:47:59;;;;;;;17.13;11.00;;;;;;;;;;5117500;27;20420;-81
2022/01/07 03:50:34;;;;;;;20.85;11.20;;;;;;;;;;5116787;27;20043;-81
2022/01/07 03:53:01;;;;;;;17.48;11.10;;;;;;;;;;5135387;27;20068;-81
2022/01/07 03:55:28;;;;;;;20.58;10.95;;;;;;;;;;5120295;27;20425;-81
2022/01/07 03:57:54;;;;;;;22.15;11.90;;;;;;;;;;5143687;27;20045;-82
2022/01/07 04:00:22;;;;;;;18.50;10.90;;;;;;;;;;5135285;27;20948;-81
2022/01/07 04:02:48;;;;;;;19.45;10.98;;;;;;;;;;5134895;27;20082;-82
2022/01/07 04:05:16;;;;;;;20.13;11.45;;;;;;;;;;5133592;27;20402;-82
2022/01/07 04:07:42;;;;;;;18.75;11.43;;;;;;;;;;5133650;27;20078;-81
2022/01/07 04:10:08;;;;;;;19.33;11.82;;;;;;;;;;5134925;27;20055;-82
2022/01/07 04:12:34;;;;;;;17.38;10.65;;;;;;;;;;5134879;27;20057;-81
2022/01/07 04:15:09;;;;;;;19.80;11.35;;;;;;;;;;5134944;27;20041;-82
2022/01/07 04:17:43;;;;;;;16.73;11.05;;;;;;;;;;5099291;27;20365;-82
2022/01/07 04:20:10;;;;;;;19.10;10.90;;;;;;;;;;5099536;27;20076;-82
2022/01/07 04:22:36;;;;;;;22.25;11.65;;;;;;;;;;5134679;27;20126;-81
2022/01/07 04:25:07;;;;;;;19.10;10.73;;;;;;;;;;5116276;27;20114;-81
2022/01/07 04:27:33;;;;;;;19.10;11.50;;;;;;;;;;5134469;27;20042;-81
2022/01/07 04:30:00;;;;;;;19.35;11.63;;;;;;;;;;5134355;27;20458;-82
2022/01/07 04:32:26;;;;;;;18.10;11.02;;;;;;;;;;5116186;27;20070;-81
2022/01/07 04:34:52;;;;;;;17.45;11.48;;;;;;;;;;5099350;27;20051;-82
2022/01/07 04:37:19;;;;;;;18.40;10.10;;;;;;;;;;5099397;27;20047;-81
2022/01/07 04:39:45;;;;;;;17.05;11.15;;;;;;;;;;5099148;27;20125;-82
2022/01/07 04:42:11;;;;;;;21.52;11.50;;;;;;;;;;5134475;27;20035;-81
2022/01/07 04:44:40;;;;;;;16.30;10.40;;;;;;;;;;5134235;27;20043;-81
2022/01/07 04:47:07;;;;;;;17.05;10.48;;;;;;;;;;5134559;27;20050;-81
2022/01/07 04:49:34;;;;;;;17.75;10.52;;;;;;;;;;5098947;27;20043;-81
2022/01/07 04:52:00;;;;;;;16.92;11.27;;;;;;;;;;5132752;27;20047;-81
2022/01/07 04:54:26;;;;;;;17.25;10.07;;;;;;;;;;5133056;27;20086;-81
2022/01/07 04:56:52;;;;;;;20.73;11.05;;;;;;;;;;5133967;27;20050;-81
2022/01/07 04:59:18;;;;;;;20.55;11.18;;;;;;;;;;5134027;27;20035;-82
2022/01/07 05:01:44;;;;;;;21.85;11.63;;;;;;;;;;5115702;27;20153;-81
2022/01/07 05:04:10;;;;;;;14.52;9.35;;;;;;;;;;5133896;27;20074;-82
2022/01/07 05:06:54;;;;;;;17.98;10.23;;;;;;;;;;5134118;27;20043;-81
2022/01/07 05:09:21;;;;;;;16.27;8.88;;;;;;;;;;5132202;27;20426;-81
2022/01/07 05:11:48;;;;;;;17.50;10.38;;;;;;;;;;5132655;27;20387;-82
2022/01/07 05:14:15;;;;;;;18.00;10.77;;;;;;;;;;5133738;27;20039;-82
2022/01/07 05:16:41;;;;;;;16.45;10.23;;;;;;;;;;5133898;27;20070;-81
2022/01/07 05:19:07;;;;;;;21.85;10.40;;;;;;;;;;5133806;27;20122;-81
2022/01/07 05:21:34;;;;;;;15.77;10.13;;;;;;;;;;5132708;27;20039;-81
2022/01/07 05:24:00;;;;;;;18.83;10.40;;;;;;;;;;5133571;27;20104;-81
2022/01/07 05:26:26;;;;;;;18.23;10.25;;;;;;;;;;5133836;27;20087;-81
2022/01/07 05:28:52;;;;;;;22.35;10.10;;;;;;;;;;5133543;27;20545;-82
2022/01/07 05:31:18;;;;;;;15.52;9.52;;;;;;;;;;5132119;27;20392;-82
2022/01/07 05:33:45;;;;;;;16.15;9.25;;;;;;;;;;5121835;27;20051;-82
2022/01/07 05:36:23;;;;;;;15.32;9.60;;;;;;;;;;5132377;27;20047;-82
2022/01/07 05:38:49;;;;;;;14.95;9.23;;;;;;;;;;5106348;28;20063;-82
2022/01/07 05:41:16;;;;;;;16.10;9.80;;;;;;;;;;5094972;28;20043;-82
2022/01/07 05:43:42;;;;;;;15.90;9.13;;;;;;;;;;5094924;28;20093;-81
2022/01/07 05:46:10;;;;;;;16.13;9.23;;;;;;;;;;5094875;28;20039;-81
2022/01/07 05:48:36;;;;;;;15.02;8.63;;;;;;;;;;5094841;28;20082;-81
2022/01/07 05:51:02;;;;;;;12.90;8.85;;;;;;;;;;5093376;28;20039;-82
2022/01/07 05:53:28;;;;;;;12.38;8.38;;;;;;;;;;5132620;28;20088;-82
2022/01/07 05:55:55;;;;;;;13.57;8.40;;;;;;;;;;5132735;28;20050;-81
2022/01/07 05:58:21;;;;;;;12.13;7.60;;;;;;;;;;5133257;28;20476;-82
2022/01/07 06:00:47;;;;;;;12.50;8.30;;;;;;;;;;5132198;28;20054;-81
2022/01/07 06:03:13;;;;;;;14.13;8.15;;;;;;;;;;5133058;28;20045;-82
2022/01/07 06:05:39;;;;;;;12.25;8.02;;;;;;;;;;5114908;28;20047;-82
2022/01/07 06:08:05;;;;;;;12.98;7.90;;;;;;;;;;5132589;28;20059;-82
2022/01/07 06:10:31;;;;;;;12.15;7.50;;;;;;;;;;5114911;28;20059;-82
2022/01/07 06:12:57;;;;;;;10.90;7.95;;;;;;;;;;5133234;28;20492;-83
2022/01/07 06:15:23;;;;;;;11.68;7.80;;;;;;;;;;5115148;28;20039;-82
2022/01/07 06:17:49;;;;;;;10.98;7.50;;;;;;;;;;5133273;28;20082;-83
2022/01/07 06:20:16;;;;;;;12.88;7.20;;;;;;;;;;5132961;28;20262;-81
2022/01/07 06:22:42;;;;;;;13.57;7.63;;;;;;;;;;5133239;28;20050;-82
2022/01/07 06:25:08;;;;;;;14.10;7.93;;;;;;;;;;5133182;28;20085;-82
2022/01/07 06:27:34;;;;;;;12.77;7.57;;;;;;;;;;5133325;27;20046;-81
2022/01/07 06:30:00;;;;;;;13.23;8.10;;;;;;;;;;5137332;27;20456;-83
2022/01/07 06:32:26;;;;;;;11.13;7.05;;;;;;;;;;5118768;27;20076;-81
2022/01/07 06:34:53;;;;;;;12.75;8.05;;;;;;;;;;5101500;27;20476;-82
2022/01/07 06:37:20;;;;;;;12.80;8.27;;;;;;;;;;5118862;27;20055;-82
2022/01/07 06:39:47;;;;;;;11.18;8.18;;;;;;;;;;5118824;27;20046;-81
2022/01/07 06:42:13;;;;;;;13.98;7.95;;;;;;;;;;5101455;27;20043;-82
2022/01/07 06:44:39;;;;;;;10.77;7.88;;;;;;;;;;5118183;27;20541;-82
2022/01/07 06:47:06;;;;;;;14.50;8.32;;;;;;;;;;5136575;27;20081;-82
2022/01/07 06:49:32;;;;;;;12.43;8.23;;;;;;;;;;5118366;27;20086;-82
2022/01/07 06:51:58;;;;;;;12.63;8.13;;;;;;;;;;5118060;27;20046;-82
2022/01/07 06:54:25;;;;;;;12.70;8.20;;;;;;;;;;5136572;27;20480;-82
2022/01/07 06:56:51;;;;;;;13.70;8.52;;;;;;;;;;5118157;27;20050;-82
2022/01/07 06:59:17;;;;;;;16.83;8.20;;;;;;;;;;5136507;27;20045;-82
2022/01/07 07:01:45;;;;;;;13.90;8.68;;;;;;;;;;5118051;27;20039;-82
2022/01/07 07:04:11;;;;;;;15.60;9.50;;;;;;;;;;5118038;27;20085;-82
2022/01/07 07:06:37;;;;;;;16.85;8.15;;;;;;;;;;5136486;27;20095;-82
2022/01/07 07:09:03;;;;;;;13.80;8.15;;;;;;;;;;5117655;27;20039;-82
2022/01/07 07:11:30;;;;;;;13.90;8.77;;;;;;;;;;5136240;27;20158;-83
2022/01/07 07:13:56;;;;;;;14.10;8.23;;;;;;;;;;5101149;27;20042;-82
2022/01/07 07:16:22;;;;;;;14.18;8.43;;;;;;;;;;5136142;27;20122;-82
2022/01/07 07:18:48;;;;;;;15.05;8.45;;;;;;;;;;5136079;27;20232;-81
2022/01/07 07:21:15;;;;;;;11.88;8.25;;;;;;;;;;5135974;27;20490;-82
2022/01/07 07:23:41;;;;;;;12.73;8.50;;;;;;;;;;5136062;27;20054;-80
2022/01/07 07:26:07;;;;;;;10.88;7.93;;;;;;;;;;5117529;27;20035;-82
2022/01/07 07:28:35;;;;;;;15.73;8.68;;;;;;;;;;5117790;27;20394;-82
2022/01/07 07:31:04;;;;;;;14.10;9.25;;;;;;;;;;5135662;27;20047;-81
2022/01/07 07:33:54;;;;;;;12.27;8.65;;;;;;;;;;5117346;27;20043;-81
2022/01/07 07:36:30;;;;;;;12.98;8.38;;;;;;;;;;5135413;27;20039;-81
2022/01/07 07:39:06;;;;;;;14.50;8.98;;;;;;;;;;5134686;27;20544;-81
2022/01/07 07:41:32;;;;;;;16.60;9.32;;;;;;;;;;5134978;27;20376;-82
2022/01/07 07:43:59;;;;;;;12.85;9.15;;;;;;;;;;5135437;27;20038;-82
2022/01/07 07:46:26;;;;;;;15.75;9.20;;;;;;;;;;5116993;27;20459;-82
2022/01/07 07:48:52;;;;;;;11.85;9.15;;;;;;;;;;5116916;27;20043;-82
2022/01/07 07:51:19;;;;;;;13.48;9.85;;;;;;;;;;5117147;27;20119;-82
2022/01/07 07:53:45;;;;;;;13.88;9.63;;;;;;;;;;5135207;27;20079;-83
2022/01/07 07:56:13;;;;;;;13.13;9.63;;;;;;;;;;5099209;27;20047;-82
2022/01/07 07:58:39;;;;;;;16.08;10.77;;;;;;;;;;5116417;27;20039;-83
2022/01/07 08:01:06;;;;;;;20.63;10.80;;;;;;;;;;5116236;27;20114;-83
2022/01/07 08:03:32;;;;;;;16.90;10.55;;;;;;;;;;5115941;27;20365;-82
2022/01/07 08:05:58;;;;;;;15.35;11.65;;;;;;;;;;5134834;27;20039;-82
2022/01/07 08:08:25;;;;;;;17.02;11.68;;;;;;;;;;5134483;27;20039;-83
2022/01/07 08:10:55;;;;;;;18.45;12.82;;;;;;;;;;5115998;27;20055;-82
2022/01/07 08:13:29;;;;;;;17.25;12.98;;;;;;;;;;5134678;27;20046;-81
2022/01/07 08:15:59;;;;;;;17.23;11.85;;;;;;;;;;5134787;27;20491;-81
2022/01/07 08:18:29;;;;;;;18.08;12.18;;;;;;;;;;5116473;27;20087;-82
2022/01/07 08:21:00;;;;;;;19.30;12.57;;;;;;;;;;5134493;27;20039;-82
2022/01/07 08:23:26;;;;;;;20.33;13.60;;;;;;;;;;5134469;27;20042;-81
2022/01/07 08:25:52;;;;;;;19.38;13.10;;;;;;;;;;5134864;27;20096;-83
2022/01/07 08:28:20;;;;;;;18.42;13.65;;;;;;;;;;5134252;27;20070;-82
2022/01/07 08:36:10;;;;;;;18.40;13.23;;;;;;;;;;5134480;27;20051;-82
2022/01/07 08:38:36;;;;;;;22.75;14.90;;;;;;;;;;5116041;27;20450;-83
2022/01/07 08:41:02;;;;;;;25.65;15.48;;;;;;;;;;5116290;27;20053;-81
2022/01/07 08:43:28;;;;;;;22.23;14.55;;;;;;;;;;5134309;27;20507;-82
2022/01/07 08:45:55;;;;;;;27.25;15.68;;;;;;;;;;5115975;27;20086;-82
2022/01/07 08:48:21;;;;;;;26.17;15.65;;;;;;;;;;5134024;27;20035;-81
2022/01/07 08:50:47;;;;;;;23.80;16.98;;;;;;;;;;5115282;27;20047;-82
2022/01/07 08:53:13;;;;;;;23.52;16.10;;;;;;;;;;5134217;27;20031;-82
2022/01/07 08:55:40;;;;;;;27.13;16.73;;;;;;;;;;5133998;27;20049;-81
2022/01/07 08:58:06;;;;;;;24.60;17.60;;;;;;;;;;5115854;27;20136;-81
2022/01/07 09:00:33;;;;;;;23.88;17.67;;;;;;;;;;5133829;27;20499;-82
2022/01/07 09:03:00;;;;;;;24.42;16.55;;;;;;;;;;5133780;27;20144;-82
2022/01/07 09:05:26;;;;;;;25.67;17.23;;;;;;;;;;5134100;27;20047;-81
2022/01/07 09:07:52;;;;;;;27.05;17.30;;;;;;;;;;5134190;27;20172;-82
2022/01/07 09:10:19;;;;;;;26.27;18.83;;;;;;;;;;5133845;27;20395;-82
2022/01/07 09:12:46;;;;;;;26.33;18.92;;;;;;;;;;5133234;27;20047;-82
2022/01/07 09:15:15;;;;;;;24.70;18.63;;;;;;;;;;5115197;27;20444;-82
2022/01/07 09:17:41;;;;;;;31.48;18.65;;;;;;;;;;5133982;27;20051;-81
2022/01/07 09:20:08;;;;;;;29.25;19.02;;;;;;;;;;5133834;27;20050;-81
2022/01/07 09:22:35;;;;;;;26.90;17.75;;;4.30;99.90;;;;;;5115221;27;20047;-83
2022/01/07 09:25:02;;;;;;;25.88;17.25;;;4.40;99.90;;;;;;5115420;28;20090;-82
2022/01/07 09:27:28;;;;;;;28.27;17.75;;;4.50;99.90;;;;;;5115412;27;20117;-82
2022/01/07 09:29:53;;;;;;;32.90;18.33;;;4.60;99.90;;;;;;5133486;27;20039;-82
2022/01/07 09:32:20;;;;;;;28.38;18.55;;;;;;;;;;5133698;27;20038;-81
2022/01/07 09:34:46;;;;;;;27.38;17.63;;;;;;;;;;5133327;27;20426;-82
2022/01/07 09:37:12;;;;;;;29.00;18.98;;;;;;;;;;5114959;28;20089;-82
2022/01/07 09:39:38;;;;;;;27.60;18.67;;;;;;;;;;5133685;28;20043;-82
2022/01/07 09:42:04;;;;;;;29.13;19.55;;;;;;;;;;5115147;28;20047;-83
2022/01/07 09:44:30;;;;;;;29.15;18.95;;;;;;;;;;5133401;28;20592;-82
2022/01/07 09:46:57;;;;;;;29.85;19.60;;;;;;;;;;5115068;28;20376;-82
2022/01/07 09:49:24;;;;;;;28.58;19.50;;;4.50;99.90;;;;;;5115546;28;20122;-82
2022/01/07 09:51:50;;;;;;;37.20;18.73;;;;;;;;;;5133412;28;20148;-81
2022/01/07 09:54:17;;;;;;;27.83;19.25;;;;;;;;;;5133287;28;20501;-82
2022/01/07 09:56:43;;;;;;;25.25;20.08;;;;;;;;;;5133399;28;20373;-82
2022/01/07 09:59:10;;;;;;;29.80;21.55;;;;;;;;;;5132275;28;20051;-81
2022/01/07 10:01:55;;;;;;;30.98;20.08;;;;;;;;;;5114439;28;20465;-83
2022/01/07 10:04:38;;;;;;;31.55;20.17;;;;;;;;;;5136170;27;20134;-82
2022/01/07 10:07:17;;;;;;;33.60;20.00;;;;;;;;;;5137331;27;20043;-82
2022/01/07 10:10:03;;;;;;;27.00;18.80;;;;;;;;;;5118711;27;20047;-79
2022/01/07 10:12:31;;;;;;;28.63;18.33;;;;;;;;;;5118344;27;20050;-83
2022/01/07 10:15:09;;;;;;;29.98;18.92;;;;;;;;;;5137471;27;20380;-82
2022/01/07 10:17:35;;;;;;;28.23;19.40;;;;;;;;;;5118926;27;20103;-81
2022/01/07 10:20:01;;;;;;;28.52;19.10;;;;;;;;;;5118739;27;20046;-82
2022/01/07 10:22:28;;;;;;;28.92;19.13;;;;;;;;;;5118746;27;20046;-82
2022/01/07 10:24:58;;;;;;;30.00;19.83;;;;;;;;;;5137107;27;20387;-82
2022/01/07 10:27:26;;;;;;;30.25;21.42;;;;;;;;;;5136987;27;20092;-82
2022/01/07 10:29:52;;;;;;;31.05;20.83;;;;;;;;;;5136764;27;20039;-82
2022/01/07 10:32:26;;;;;;;29.27;20.10;;;;;;;;;;5136764;27;20039;-82
2022/01/07 10:35:04;;;;;;;32.28;20.00;;;;;;;;;;5118770;27;20046;-81
2022/01/07 10:37:31;;;;;;;26.85;19.95;;;;;;;;;;5136937;27;20043;-82
2022/01/07 10:39:57;;;;;;;25.70;18.95;;;;;;;;;;5118795;27;20078;-82
2022/01/07 10:42:27;;;;;;;28.25;18.30;;;;;;;;;;5136648;27;20467;-82
2022/01/07 10:45:00;;;;;;;27.55;17.95;;;;;;;;;;5136517;27;20062;-82
2022/01/07 10:47:26;;;;;;;28.83;17.13;;;;;;;;;;5118538;27;20043;-81
2022/01/07 10:50:12;;;;;;;27.27;18.77;;;;;;;;;;5136748;27;20043;-81
2022/01/07 10:52:38;;;;;;;24.08;17.00;;;;;;;;;;5118065;27;20473;-82
2022/01/07 10:55:22;;;;;;;29.33;18.33;;;;;;;;;;5136337;27;20441;-81
2022/01/07 10:57:49;;;;;;;28.88;17.55;;;;;;;;;;5118113;27;20039;-82
2022/01/07 11:00:17;;;;;;;21.42;15.23;;;;;;;;;;5136332;27;20042;-82
2022/01/07 11:02:43;;;;;;;18.17;13.57;;;;;;;;;;5118048;27;20050;-82
2022/01/07 11:05:09;;;;;;;17.52;13.15;;;5.10;99.90;;;;;;5117869;27;20043;-82
2022/01/07 11:07:36;;;;;;;21.63;13.25;;;;;;;;;;5136218;27;20127;-81
2022/01/07 11:10:04;;;;;;;20.55;14.02;;;5.20;99.90;;;;;;5135628;27;20055;-82
2022/01/07 11:12:31;;;;;;;13.93;9.55;;;;;;;;;;5118160;27;20073;-82
2022/01/07 11:14:58;;;;;;;14.15;6.85;;;;;;;;;;5135948;27;20161;-83
2022/01/07 11:17:26;;;;;;;14.63;6.75;;;;;;;;;;5117703;27;20130;-82
2022/01/07 11:19:54;;;;;;;14.52;6.07;;;;;;;;;;5136197;27;20133;-82
2022/01/07 11:22:22;;;;;;;16.67;6.65;;;;;;;;;;5117473;27;20043;-82
2022/01/07 11:24:54;;;;;;;15.02;6.32;;;;;;;;;;5117544;27;20058;-82
2022/01/07 11:27:28;;;;;;;13.82;6.68;;;;;;;;;;5101418;27;20126;-82
2022/01/07 11:30:11;;;;;;;12.32;6.68;;;;;;;;;;5100796;27;20125;-82
2022/01/07 11:32:42;;;;;;;12.38;7.22;;;;;;;;;;5135641;27;20075;-82
2022/01/07 11:35:20;;;;;;;14.77;7.25;;;;;;;;;;5117616;27;20039;-82
2022/01/07 11:37:57;;;;;;;17.98;10.35;;;;;;;;;;5135612;27;20051;-81
2022/01/07 11:40:29;;;;;;;18.75;11.23;;;;;;;;;;5117707;27;20480;-83
2022/01/07 11:42:56;;;;;;;17.80;11.02;;;;;;;;;;5135500;27;20043;-82
2022/01/07 11:45:34;;;;;;;16.48;10.98;;;;;;;;;;5135151;27;20567;-81
2022/01/07 11:48:09;;;;;;;18.00;10.88;;;;;;;;;;5135422;27;20130;-82
2022/01/07 11:50:46;;;;;;;13.98;10.27;;;;;;;;;;5135267;27;20484;-82
2022/01/07 11:53:12;;;;;;;16.10;11.00;;;;;;;;;;5135357;27;20484;-82
2022/01/07 11:55:38;;;;;;;17.58;11.55;;;;;;;;;;5116930;27;20031;-81
2022/01/07 11:58:11;;;;;;;20.25;12.40;;;;;;;;;;5100191;27;20046;-81
2022/01/07 12:00:56;;;;;;;16.83;12.13;;;;;;;;;;5099884;27;20048;-84
2022/01/07 12:03:32;;;;;;;16.63;12.23;;;;;;;;;;5116413;27;20395;-80
2022/01/07 12:05:58;;;;;;;24.13;12.60;;;;;;;;;;5116886;27;20047;-85
2022/01/07 12:08:40;;;;;;;17.13;13.18;;;;;;;;;;5116852;27;20460;-85
2022/01/07 12:11:07;;;;;;;22.48;13.25;;;;;;;;;;5113071;28;20051;-83
2022/01/07 12:13:36;;;;;;;23.42;14.48;;;;;;;;;;5096218;28;20086;-84
2022/01/07 12:16:02;;;;;;;22.02;15.10;;;;;;;;;;5114003;28;20165;-84
2022/01/07 12:18:32;;;;;;;21.23;14.07;;;;;;;;;;5096276;28;20075;-82
2022/01/07 12:20:59;;;;;;;24.47;13.80;;;;;;;;;;5113381;28;20082;-82
2022/01/07 12:23:25;;;;;;;22.90;13.52;;;;;;;;;;5112922;28;20100;-82
2022/01/07 12:25:57;;;;;;;17.25;11.60;;;;;;;;;;5113442;28;20040;-83
2022/01/07 12:28:24;;;;;;;17.10;10.52;;;;;;;;;;5113293;28;20039;-81
2022/01/07 12:30:51;;;;;;;13.80;8.77;;;;;;;;;;5096051;28;20052;-82
2022/01/07 12:33:17;;;;;;;15.57;8.68;;;;;;;;;;5112907;28;20043;-82
2022/01/07 12:35:44;;;;;;;14.77;7.55;;;;;;;;;;5112766;28;20127;-82
2022/01/07 12:38:11;;;;;;;13.50;6.03;;;;;;;;;;5113051;28;20048;-82
2022/01/07 12:40:37;;;;;;;11.57;3.60;;;;;;;;;;5114056;28;20046;-83
2022/01/07 12:43:03;;;;;;;10.30;3.78;;;;;;;;;;5113757;28;20122;-82
2022/01/07 12:45:31;;;;;;;9.95;2.15;;;;;;;;;;5112666;28;20045;-82
2022/01/07 12:47:57;;;;;;;8.35;1.45;;;;;;;;;;5095363;28;20563;-83
2022/01/07 12:50:24;;;;;;;12.52;3.20;;;;;;;;;;5113893;28;20044;-81
2022/01/07 12:52:51;;;;;;;11.25;2.85;;;;;;;;;;5113539;28;20048;-83
2022/01/07 12:55:18;;;;;;;11.07;2.45;;;;;;;;;;5112590;28;20126;-82
2022/01/07 12:57:48;;;;;;;9.48;2.13;;;;;;;;;;5112598;28;20043;-82
2022/01/07 13:00:22;;;;;;;11.00;2.20;;;;;;;;;;5113357;28;20032;-82
2022/01/07 13:02:50;;;;;;;13.13;1.95;;;;;;;;;;5113562;28;20122;-82
2022/01/07 13:05:22;;;;;;;9.43;1.98;;;;;;;;;;5113427;28;20123;-82
2022/01/07 13:07:58;;;;;;;9.20;1.90;;;;;;;;;;5112515;28;20051;-82
2022/01/07 13:10:26;;;;;;;9.02;1.80;;;;;;;;;;5125770;27;20051;-82
2022/01/07 13:12:54;;;;;;;10.25;1.90;;;;;;;;;;5133706;27;20043;-81
2022/01/07 13:15:40;;;;;;;6.15;1.50;;;;;;;;;;5115486;27;20122;-82
2022/01/07 13:18:23;;;;;;;6.28;1.35;;;;;;;;;;5115540;27;20051;-80
2022/01/07 13:20:51;;;;;;;7.10;1.50;;;;;;;;;;5115590;27;20058;-82
2022/01/07 13:23:18;;;;;;;10.27;2.53;;;;;;;;;;5133593;27;20049;-83
2022/01/07 13:25:45;;;;;;;10.85;2.60;;;;;;;;;;5115754;27;20135;-80
2022/01/07 13:28:11;;;;;;;7.50;2.00;;;;;;;;;;5115525;27;20483;-81
2022/01/07 13:30:44;;;;;;;11.07;2.08;;;;;;;;;;5115702;27;20071;-82
2022/01/07 13:33:15;;;;;;;10.38;2.70;;;;;;;;;;5133416;27;20039;-83
2022/01/07 13:35:41;;;;;;;13.40;2.60;;;;;;;;;;5133317;27;20051;-82
2022/01/07 13:38:15;;;;;;;10.57;3.22;;;;;;;;;;5114598;28;20281;-82
2022/01/07 13:40:42;;;;;;;13.25;3.53;;;;;;;;;;5133561;28;20043;-83
2022/01/07 13:43:15;;;;;;;13.07;3.40;;;;;;;;;;5133397;28;20047;-80
2022/01/07 13:45:42;;;;;;;17.92;3.97;;;;;;;;;;5133315;28;20043;-82
2022/01/07 13:48:12;;;;;;;13.88;3.83;;;;;;;;;;5133221;28;20416;-82
2022/01/07 13:50:40;;;;;;;13.18;3.88;;;;;;;;;;5133316;28;20451;-82
2022/01/07 13:53:12;;;;;;;12.50;4.75;;;;;;;;;;5133450;28;20039;-82
2022/01/07 13:55:39;;;;;;;15.40;4.45;;;;;;;;;;5115079;28;20279;-82
2022/01/07 13:58:09;;;;;;;10.68;4.18;;;;;;;;;;5114808;28;20484;-81
2022/01/07 14:00:36;;;;;;;14.13;4.95;;;;;;;;;;5133112;28;20039;-81
2022/01/07 14:03:03;;;;;;;16.42;5.57;;;;;;;;;;5114327;28;20498;-81
2022/01/07 14:05:29;;;;;;;16.42;5.90;;;;;;;;;;5133407;28;20043;-82
2022/01/07 14:07:55;;;;;;;16.70;5.47;;;;;;;;;;5115155;28;20054;-83
2022/01/07 14:10:25;;;;;;;14.00;5.53;;;;;;;;;;5097916;28;20055;-82
2022/01/07 14:12:51;;;;;;;13.68;5.75;;;;;;;;;;5133047;28;20506;-82
2022/01/07 14:15:23;;;;;;;12.63;5.50;;;;;;;;;;5114881;28;20050;-83
2022/01/07 14:17:49;;;;;;;14.93;5.68;;;;;;;;;;5098314;28;20049;-81
2022/01/07 14:20:16;;;;;;;14.38;4.57;;;;;;;;;;5133096;28;20055;-82
2022/01/07 14:22:44;;;;;;;15.13;3.13;;;;;;;;;;5114640;28;20051;-81
2022/01/07 14:25:11;;;;;;;11.25;3.40;;;;;;;;;;5133113;28;20123;-82
2022/01/07 14:27:38;;;;;;;10.23;3.47;;;;;;;;;;5133239;28;20549;-82
2022/01/07 14:30:05;;;;;;;10.40;3.22;;;;;;;;;;5114640;28;20092;-83